sensor_id;sensor_type;location;lat;lon;timestamp;P1;durP1;ratioP1;P2;durP2;ratioP2
7487;SDS011;3785;52.260;4.728;2023-04-03T00:00:48;1.30;;;0.57;;
7487;SDS011;3785;52.260;4.728;2023-04-03T00:04:09;2.47;;;0.63;;
7487;SDS011;3785;52.260;4.728;2023-04-03T00:07:30;1.00;;;0.50;;
7487;SDS011;3785;52.260;4.728;2023-04-03T00:10:50;2.85;;;0.70;;
7487;SDS011;3785;52.260;4.728;2023-04-03T00:14:11;0.82;;;0.50;;
7487;SDS011;3785;52.260;4.728;2023-04-03T00:17:31;2.35;;;0.60;;
7487;SDS011;3785;52.260;4.728;2023-04-03T00:20:52;0.77;;;0.47;;
7487;SDS011;3785;52.260;4.728;2023-04-03T00:24:12;1.77;;;0.50;;
7487;SDS011;3785;52.260;4.728;2023-04-03T00:27:33;2.92;;;0.60;;
7487;SDS011;3785;52.260;4.728;2023-04-03T00:30:56;1.52;;;0.90;;
7487;SDS011;3785;52.260;4.728;2023-04-03T00:34:17;2.08;;;0.63;;
7487;SDS011;3785;52.260;4.728;2023-04-03T00:37:37;2.30;;;0.70;;
7487;SDS011;3785;52.260;4.728;2023-04-03T00:40:58;1.63;;;0.60;;
7487;SDS011;3785;52.260;4.728;2023-04-03T00:47:48;1.58;;;0.70;;
7487;SDS011;3785;52.260;4.728;2023-04-03T00:51:11;0.90;;;0.55;;
7487;SDS011;3785;52.260;4.728;2023-04-03T00:54:33;2.45;;;0.80;;
7487;SDS011;3785;52.260;4.728;2023-04-03T00:57:55;0.93;;;0.40;;
7487;SDS011;3785;52.260;4.728;2023-04-03T01:01:18;0.88;;;0.52;;
7487;SDS011;3785;52.260;4.728;2023-04-03T01:04:42;1.85;;;0.63;;
7487;SDS011;3785;52.260;4.728;2023-04-03T01:08:03;2.08;;;0.57;;
7487;SDS011;3785;52.260;4.728;2023-04-03T01:11:24;1.23;;;0.80;;
7487;SDS011;3785;52.260;4.728;2023-04-03T01:14:47;1.02;;;0.77;;
7487;SDS011;3785;52.260;4.728;2023-04-03T01:18:10;1.67;;;0.60;;
7487;SDS011;3785;52.260;4.728;2023-04-03T01:25:12;1.02;;;0.50;;
7487;SDS011;3785;52.260;4.728;2023-04-03T01:28:34;1.55;;;0.73;;
7487;SDS011;3785;52.260;4.728;2023-04-03T01:31:56;2.63;;;0.80;;
7487;SDS011;3785;52.260;4.728;2023-04-03T01:35:18;1.17;;;0.60;;
7487;SDS011;3785;52.260;4.728;2023-04-03T01:38:39;1.02;;;0.70;;
7487;SDS011;3785;52.260;4.728;2023-04-03T01:42:00;2.47;;;0.70;;
7487;SDS011;3785;52.260;4.728;2023-04-03T01:45:21;1.85;;;0.70;;
7487;SDS011;3785;52.260;4.728;2023-04-03T01:48:41;1.50;;;0.80;;
7487;SDS011;3785;52.260;4.728;2023-04-03T01:52:02;2.90;;;0.57;;
7487;SDS011;3785;52.260;4.728;2023-04-03T01:55:23;1.00;;;0.60;;
7487;SDS011;3785;52.260;4.728;2023-04-03T01:58:43;1.08;;;0.65;;
7487;SDS011;3785;52.260;4.728;2023-04-03T02:02:04;0.95;;;0.60;;
7487;SDS011;3785;52.260;4.728;2023-04-03T02:05:24;2.40;;;1.08;;
7487;SDS011;3785;52.260;4.728;2023-04-03T02:08:45;2.17;;;1.00;;
7487;SDS011;3785;52.260;4.728;2023-04-03T02:12:06;1.23;;;0.80;;
7487;SDS011;3785;52.260;4.728;2023-04-03T02:15:26;1.83;;;0.93;;
7487;SDS011;3785;52.260;4.728;2023-04-03T02:18:47;1.17;;;0.52;;
7487;SDS011;3785;52.260;4.728;2023-04-03T02:22:07;1.55;;;0.80;;
7487;SDS011;3785;52.260;4.728;2023-04-03T02:25:28;1.10;;;0.70;;
7487;SDS011;3785;52.260;4.728;2023-04-03T02:28:50;3.17;;;1.00;;
7487;SDS011;3785;52.260;4.728;2023-04-03T02:32:11;2.20;;;0.80;;
7487;SDS011;3785;52.260;4.728;2023-04-03T02:35:31;1.48;;;0.80;;
7487;SDS011;3785;52.260;4.728;2023-04-03T02:38:52;1.77;;;0.88;;
7487;SDS011;3785;52.260;4.728;2023-04-03T02:42:12;1.13;;;0.63;;
7487;SDS011;3785;52.260;4.728;2023-04-03T02:45:33;1.40;;;0.80;;
7487;SDS011;3785;52.260;4.728;2023-04-03T02:48:54;1.77;;;0.77;;
7487;SDS011;3785;52.260;4.728;2023-04-03T02:52:14;1.08;;;0.50;;
7487;SDS011;3785;52.260;4.728;2023-04-03T02:55:35;1.40;;;0.70;;
7487;SDS011;3785;52.260;4.728;2023-04-03T02:58:56;1.58;;;0.80;;
7487;SDS011;3785;52.260;4.728;2023-04-03T03:02:16;2.13;;;0.77;;
7487;SDS011;3785;52.260;4.728;2023-04-03T03:05:37;2.50;;;0.88;;
7487;SDS011;3785;52.260;4.728;2023-04-03T03:08:57;1.40;;;0.85;;
7487;SDS011;3785;52.260;4.728;2023-04-03T03:12:18;2.58;;;0.73;;
7487;SDS011;3785;52.260;4.728;2023-04-03T03:15:41;2.28;;;0.93;;
7487;SDS011;3785;52.260;4.728;2023-04-03T03:19:02;1.73;;;0.82;;
7487;SDS011;3785;52.260;4.728;2023-04-03T03:22:22;2.63;;;0.90;;
7487;SDS011;3785;52.260;4.728;2023-04-03T03:25:43;2.28;;;0.70;;
7487;SDS011;3785;52.260;4.728;2023-04-03T03:29:03;1.67;;;0.93;;
7487;SDS011;3785;52.260;4.728;2023-04-03T03:32:24;1.67;;;0.93;;
7487;SDS011;3785;52.260;4.728;2023-04-03T03:35:45;3.25;;;1.02;;
7487;SDS011;3785;52.260;4.728;2023-04-03T03:39:06;1.05;;;0.70;;
7487;SDS011;3785;52.260;4.728;2023-04-03T03:42:26;1.35;;;0.88;;
7487;SDS011;3785;52.260;4.728;2023-04-03T03:45:51;3.60;;;0.90;;
7487;SDS011;3785;52.260;4.728;2023-04-03T03:49:12;2.55;;;0.90;;
7487;SDS011;3785;52.260;4.728;2023-04-03T03:52:32;2.58;;;1.10;;
7487;SDS011;3785;52.260;4.728;2023-04-03T03:55:53;1.83;;;0.93;;
7487;SDS011;3785;52.260;4.728;2023-04-03T03:59:13;2.42;;;0.70;;
7487;SDS011;3785;52.260;4.728;2023-04-03T04:02:34;2.88;;;1.27;;
7487;SDS011;3785;52.260;4.728;2023-04-03T04:05:54;3.05;;;0.90;;
7487;SDS011;3785;52.260;4.728;2023-04-03T04:09:15;2.50;;;1.15;;
7487;SDS011;3785;52.260;4.728;2023-04-03T04:12:36;1.70;;;0.98;;
7487;SDS011;3785;52.260;4.728;2023-04-03T04:15:56;2.08;;;0.82;;
7487;SDS011;3785;52.260;4.728;2023-04-03T04:19:17;2.33;;;1.13;;
7487;SDS011;3785;52.260;4.728;2023-04-03T04:22:37;1.17;;;0.60;;
7487;SDS011;3785;52.260;4.728;2023-04-03T04:25:58;2.83;;;1.25;;
7487;SDS011;3785;52.260;4.728;2023-04-03T04:29:19;1.48;;;0.80;;
7487;SDS011;3785;52.260;4.728;2023-04-03T04:32:40;2.33;;;0.82;;
7487;SDS011;3785;52.260;4.728;2023-04-03T04:36:00;2.17;;;1.00;;
7487;SDS011;3785;52.260;4.728;2023-04-03T04:39:21;2.75;;;1.30;;
7487;SDS011;3785;52.260;4.728;2023-04-03T04:42:42;1.90;;;1.00;;
7487;SDS011;3785;52.260;4.728;2023-04-03T04:46:07;2.95;;;1.10;;
7487;SDS011;3785;52.260;4.728;2023-04-03T04:49:28;1.15;;;0.70;;
7487;SDS011;3785;52.260;4.728;2023-04-03T04:52:48;1.25;;;0.85;;
7487;SDS011;3785;52.260;4.728;2023-04-03T04:56:09;2.00;;;0.93;;
7487;SDS011;3785;52.260;4.728;2023-04-03T04:59:30;1.17;;;0.80;;
7487;SDS011;3785;52.260;4.728;2023-04-03T05:02:50;2.67;;;1.00;;
7487;SDS011;3785;52.260;4.728;2023-04-03T05:06:11;1.90;;;1.25;;
7487;SDS011;3785;52.260;4.728;2023-04-03T05:09:32;1.17;;;0.80;;
7487;SDS011;3785;52.260;4.728;2023-04-03T05:12:52;2.95;;;1.02;;
7487;SDS011;3785;52.260;4.728;2023-04-03T05:16:13;1.03;;;0.60;;
7487;SDS011;3785;52.260;4.728;2023-04-03T05:19:33;3.03;;;1.15;;
7487;SDS011;3785;52.260;4.728;2023-04-03T05:22:54;1.70;;;0.85;;
7487;SDS011;3785;52.260;4.728;2023-04-03T05:26:14;3.33;;;0.93;;
7487;SDS011;3785;52.260;4.728;2023-04-03T05:29:35;2.13;;;1.20;;
7487;SDS011;3785;52.260;4.728;2023-04-03T05:32:56;1.80;;;0.90;;
7487;SDS011;3785;52.260;4.728;2023-04-03T05:36:16;4.03;;;1.20;;
7487;SDS011;3785;52.260;4.728;2023-04-03T05:39:37;2.23;;;1.10;;
7487;SDS011;3785;52.260;4.728;2023-04-03T05:43:01;2.63;;;1.20;;
7487;SDS011;3785;52.260;4.728;2023-04-03T05:46:21;1.87;;;1.17;;
7487;SDS011;3785;52.260;4.728;2023-04-03T05:49:42;1.57;;;1.03;;
7487;SDS011;3785;52.260;4.728;2023-04-03T05:53:05;2.53;;;0.98;;
7487;SDS011;3785;52.260;4.728;2023-04-03T05:56:25;2.00;;;1.13;;
7487;SDS011;3785;52.260;4.728;2023-04-03T05:59:46;3.35;;;1.00;;
7487;SDS011;3785;52.260;4.728;2023-04-03T06:03:07;3.70;;;1.02;;
7487;SDS011;3785;52.260;4.728;2023-04-03T06:10:05;4.65;;;1.30;;
7487;SDS011;3785;52.260;4.728;2023-04-03T06:13:26;4.60;;;1.33;;
7487;SDS011;3785;52.260;4.728;2023-04-03T06:16:47;2.03;;;1.00;;
7487;SDS011;3785;52.260;4.728;2023-04-03T06:20:08;2.70;;;1.02;;
7487;SDS011;3785;52.260;4.728;2023-04-03T06:23:29;1.38;;;0.90;;
7487;SDS011;3785;52.260;4.728;2023-04-03T06:26:50;3.85;;;1.10;;
7487;SDS011;3785;52.260;4.728;2023-04-03T06:30:11;3.08;;;1.35;;
7487;SDS011;3785;52.260;4.728;2023-04-03T06:33:32;2.33;;;1.10;;
7487;SDS011;3785;52.260;4.728;2023-04-03T06:36:52;2.05;;;1.00;;
7487;SDS011;3785;52.260;4.728;2023-04-03T06:40:15;3.58;;;1.02;;
7487;SDS011;3785;52.260;4.728;2023-04-03T06:43:39;1.52;;;1.02;;
7487;SDS011;3785;52.260;4.728;2023-04-03T06:47:00;1.50;;;1.13;;
7487;SDS011;3785;52.260;4.728;2023-04-03T06:50:21;6.10;;;1.20;;
7487;SDS011;3785;52.260;4.728;2023-04-03T06:53:41;2.20;;;1.10;;
7487;SDS011;3785;52.260;4.728;2023-04-03T06:57:02;5.65;;;1.35;;
7487;SDS011;3785;52.260;4.728;2023-04-03T07:00:22;2.85;;;1.05;;
7487;SDS011;3785;52.260;4.728;2023-04-03T07:03:43;2.28;;;0.95;;
7487;SDS011;3785;52.260;4.728;2023-04-03T07:07:04;4.90;;;1.08;;
7487;SDS011;3785;52.260;4.728;2023-04-03T07:10:24;1.98;;;1.30;;
7487;SDS011;3785;52.260;4.728;2023-04-03T07:13:45;2.30;;;0.98;;
7487;SDS011;3785;52.260;4.728;2023-04-03T07:17:06;1.58;;;1.15;;
7487;SDS011;3785;52.260;4.728;2023-04-03T07:20:26;2.35;;;1.00;;
7487;SDS011;3785;52.260;4.728;2023-04-03T07:23:47;2.28;;;0.95;;
7487;SDS011;3785;52.260;4.728;2023-04-03T07:27:08;2.05;;;0.90;;
7487;SDS011;3785;52.260;4.728;2023-04-03T07:30:28;2.63;;;0.98;;
7487;SDS011;3785;52.260;4.728;2023-04-03T07:33:49;1.80;;;1.10;;
7487;SDS011;3785;52.260;4.728;2023-04-03T07:37:10;2.70;;;1.10;;
7487;SDS011;3785;52.260;4.728;2023-04-03T07:40:30;1.85;;;0.90;;
7487;SDS011;3785;52.260;4.728;2023-04-03T07:43:51;2.95;;;0.95;;
7487;SDS011;3785;52.260;4.728;2023-04-03T07:47:12;3.85;;;0.88;;
7487;SDS011;3785;52.260;4.728;2023-04-03T07:50:36;1.48;;;0.75;;
7487;SDS011;3785;52.260;4.728;2023-04-03T07:53:56;1.25;;;0.68;;
7487;SDS011;3785;52.260;4.728;2023-04-03T07:57:17;2.03;;;0.57;;
7487;SDS011;3785;52.260;4.728;2023-04-03T08:00:38;3.80;;;1.20;;
7487;SDS011;3785;52.260;4.728;2023-04-03T08:03:59;3.10;;;1.05;;
7487;SDS011;3785;52.260;4.728;2023-04-03T08:07:20;2.03;;;0.75;;
7487;SDS011;3785;52.260;4.728;2023-04-03T08:10:41;2.15;;;1.00;;
7487;SDS011;3785;52.260;4.728;2023-04-03T08:14:02;4.35;;;1.13;;
7487;SDS011;3785;52.260;4.728;2023-04-03T08:17:22;1.10;;;0.80;;
7487;SDS011;3785;52.260;4.728;2023-04-03T08:20:43;3.03;;;0.90;;
7487;SDS011;3785;52.260;4.728;2023-04-03T08:24:04;2.40;;;1.02;;
7487;SDS011;3785;52.260;4.728;2023-04-03T08:27:24;1.83;;;0.80;;
7487;SDS011;3785;52.260;4.728;2023-04-03T08:30:46;1.70;;;0.80;;
7487;SDS011;3785;52.260;4.728;2023-04-03T08:34:07;3.35;;;0.77;;
7487;SDS011;3785;52.260;4.728;2023-04-03T08:37:28;3.42;;;0.80;;
7487;SDS011;3785;52.260;4.728;2023-04-03T08:40:59;1.92;;;0.60;;
7487;SDS011;3785;52.260;4.728;2023-04-03T08:44:40;1.40;;;0.90;;
7487;SDS011;3785;52.260;4.728;2023-04-03T08:52:08;2.25;;;0.88;;
7487;SDS011;3785;52.260;4.728;2023-04-03T08:55:31;3.47;;;0.93;;
7487;SDS011;3785;52.260;4.728;2023-04-03T08:59:00;2.60;;;0.65;;
7487;SDS011;3785;52.260;4.728;2023-04-03T09:02:29;1.05;;;0.52;;
7487;SDS011;3785;52.260;4.728;2023-04-03T09:05:55;1.15;;;0.57;;
7487;SDS011;3785;52.260;4.728;2023-04-03T09:12:57;1.42;;;0.60;;
7487;SDS011;3785;52.260;4.728;2023-04-03T09:16:32;0.75;;;0.55;;
7487;SDS011;3785;52.260;4.728;2023-04-03T09:20:09;1.52;;;0.57;;
7487;SDS011;3785;52.260;4.728;2023-04-03T09:23:47;2.25;;;0.60;;
7487;SDS011;3785;52.260;4.728;2023-04-03T09:27:11;0.90;;;0.60;;
7487;SDS011;3785;52.260;4.728;2023-04-03T09:30:32;2.08;;;0.50;;
7487;SDS011;3785;52.260;4.728;2023-04-03T09:33:54;1.95;;;0.65;;
7487;SDS011;3785;52.260;4.728;2023-04-03T09:37:51;1.52;;;0.70;;
7487;SDS011;3785;52.260;4.728;2023-04-03T09:41:07;1.85;;;0.40;;
7487;SDS011;3785;52.260;4.728;2023-04-03T09:44:35;2.60;;;0.90;;
7487;SDS011;3785;52.260;4.728;2023-04-03T09:51:33;1.83;;;0.70;;
7487;SDS011;3785;52.260;4.728;2023-04-03T09:54:53;0.65;;;0.50;;
7487;SDS011;3785;52.260;4.728;2023-04-03T09:58:23;1.35;;;0.70;;
7487;SDS011;3785;52.260;4.728;2023-04-03T10:02:50;0.60;;;0.32;;
7487;SDS011;3785;52.260;4.728;2023-04-03T10:05:50;1.55;;;0.50;;
7487;SDS011;3785;52.260;4.728;2023-04-03T10:12:42;0.68;;;0.40;;
7487;SDS011;3785;52.260;4.728;2023-04-03T10:16:03;1.25;;;0.50;;
7487;SDS011;3785;52.260;4.728;2023-04-03T10:19:34;0.75;;;0.30;;
7487;SDS011;3785;52.260;4.728;2023-04-03T10:23:14;3.15;;;0.50;;
7487;SDS011;3785;52.260;4.728;2023-04-03T10:26:45;0.40;;;0.32;;
7487;SDS011;3785;52.260;4.728;2023-04-03T10:37:52;1.67;;;0.63;;
7487;SDS011;3785;52.260;4.728;2023-04-03T10:48:40;1.10;;;0.60;;
7487;SDS011;3785;52.260;4.728;2023-04-03T11:03:14;0.50;;;0.30;;
7487;SDS011;3785;52.260;4.728;2023-04-03T11:06:47;1.55;;;0.30;;
7487;SDS011;3785;52.260;4.728;2023-04-03T11:10:15;1.25;;;0.30;;
7487;SDS011;3785;52.260;4.728;2023-04-03T11:13:52;1.05;;;0.50;;
7487;SDS011;3785;52.260;4.728;2023-04-03T11:17:38;0.43;;;0.32;;
7487;SDS011;3785;52.260;4.728;2023-04-03T11:21:08;1.00;;;0.30;;
7487;SDS011;3785;52.260;4.728;2023-04-03T11:24:39;0.63;;;0.40;;
7487;SDS011;3785;52.260;4.728;2023-04-03T11:28:06;0.82;;;0.40;;
7487;SDS011;3785;52.260;4.728;2023-04-03T11:35:01;0.88;;;0.30;;
7487;SDS011;3785;52.260;4.728;2023-04-03T11:38:30;1.13;;;0.40;;
7487;SDS011;3785;52.260;4.728;2023-04-03T11:42:07;0.52;;;0.35;;
7487;SDS011;3785;52.260;4.728;2023-04-03T11:45:50;0.80;;;0.40;;
7487;SDS011;3785;52.260;4.728;2023-04-03T11:53:36;1.13;;;0.40;;
7487;SDS011;3785;52.260;4.728;2023-04-03T11:56:59;0.52;;;0.38;;
7487;SDS011;3785;52.260;4.728;2023-04-03T12:04:12;1.02;;;0.50;;
7487;SDS011;3785;52.260;4.728;2023-04-03T12:07:35;0.38;;;0.30;;
7487;SDS011;3785;52.260;4.728;2023-04-03T12:14:29;1.52;;;0.50;;
7487;SDS011;3785;52.260;4.728;2023-04-03T12:17:50;0.45;;;0.35;;
7487;SDS011;3785;52.260;4.728;2023-04-03T12:21:12;1.08;;;0.22;;
7487;SDS011;3785;52.260;4.728;2023-04-03T12:24:34;0.52;;;0.30;;
7487;SDS011;3785;52.260;4.728;2023-04-03T12:27:56;1.35;;;0.50;;
7487;SDS011;3785;52.260;4.728;2023-04-03T12:31:16;1.02;;;0.40;;
7487;SDS011;3785;52.260;4.728;2023-04-03T12:45:20;0.70;;;0.40;;
7487;SDS011;3785;52.260;4.728;2023-04-03T12:55:45;1.33;;;0.50;;
7487;SDS011;3785;52.260;4.728;2023-04-03T13:02:56;1.13;;;0.40;;
7487;SDS011;3785;52.260;4.728;2023-04-03T13:06:18;1.23;;;0.40;;
7487;SDS011;3785;52.260;4.728;2023-04-03T13:09:41;1.48;;;0.52;;
7487;SDS011;3785;52.260;4.728;2023-04-03T13:13:08;0.90;;;0.30;;
7487;SDS011;3785;52.260;4.728;2023-04-03T13:16:29;0.88;;;0.40;;
7487;SDS011;3785;52.260;4.728;2023-04-03T13:19:50;1.30;;;0.40;;
7487;SDS011;3785;52.260;4.728;2023-04-03T13:23:11;1.10;;;0.40;;
7487;SDS011;3785;52.260;4.728;2023-04-03T13:26:33;0.95;;;0.50;;
7487;SDS011;3785;52.260;4.728;2023-04-03T13:29:54;0.68;;;0.38;;
7487;SDS011;3785;52.260;4.728;2023-04-03T13:33:22;1.38;;;0.50;;
7487;SDS011;3785;52.260;4.728;2023-04-03T13:36:50;1.08;;;0.50;;
7487;SDS011;3785;52.260;4.728;2023-04-03T13:40:19;0.40;;;0.35;;
7487;SDS011;3785;52.260;4.728;2023-04-03T13:43:39;1.65;;;0.60;;
7487;SDS011;3785;52.260;4.728;2023-04-03T13:47:14;0.82;;;0.43;;
7487;SDS011;3785;52.260;4.728;2023-04-03T13:54:19;0.90;;;0.47;;
7487;SDS011;3785;52.260;4.728;2023-04-03T14:01:41;1.15;;;0.60;;
7487;SDS011;3785;52.260;4.728;2023-04-03T14:05:05;2.45;;;0.70;;
7487;SDS011;3785;52.260;4.728;2023-04-03T14:08:28;1.58;;;0.70;;
7487;SDS011;3785;52.260;4.728;2023-04-03T14:11:49;0.98;;;0.60;;
7487;SDS011;3785;52.260;4.728;2023-04-03T14:15:30;0.98;;;0.50;;
7487;SDS011;3785;52.260;4.728;2023-04-03T14:18:51;0.93;;;0.50;;
7487;SDS011;3785;52.260;4.728;2023-04-03T14:22:20;0.90;;;0.50;;
7487;SDS011;3785;52.260;4.728;2023-04-03T14:25:43;3.72;;;0.93;;
7487;SDS011;3785;52.260;4.728;2023-04-03T14:29:03;1.30;;;0.60;;
7487;SDS011;3785;52.260;4.728;2023-04-03T14:32:24;2.00;;;0.50;;
7487;SDS011;3785;52.260;4.728;2023-04-03T14:35:46;1.13;;;0.68;;
7487;SDS011;3785;52.260;4.728;2023-04-03T14:39:07;2.50;;;0.70;;
7487;SDS011;3785;52.260;4.728;2023-04-03T14:42:31;1.92;;;0.50;;
7487;SDS011;3785;52.260;4.728;2023-04-03T14:45:53;1.15;;;0.50;;
7487;SDS011;3785;52.260;4.728;2023-04-03T14:49:15;0.77;;;0.45;;
7487;SDS011;3785;52.260;4.728;2023-04-03T14:52:40;3.85;;;0.85;;
7487;SDS011;3785;52.260;4.728;2023-04-03T14:56:01;1.35;;;0.77;;
7487;SDS011;3785;52.260;4.728;2023-04-03T14:59:21;0.88;;;0.60;;
7487;SDS011;3785;52.260;4.728;2023-04-03T15:02:42;0.85;;;0.50;;
7487;SDS011;3785;52.260;4.728;2023-04-03T15:06:03;2.10;;;0.55;;
7487;SDS011;3785;52.260;4.728;2023-04-03T15:09:25;4.50;;;0.90;;
7487;SDS011;3785;52.260;4.728;2023-04-03T15:12:47;2.08;;;0.70;;
7487;SDS011;3785;52.260;4.728;2023-04-03T15:16:18;3.05;;;0.75;;
7487;SDS011;3785;52.260;4.728;2023-04-03T15:19:39;1.00;;;0.47;;
7487;SDS011;3785;52.260;4.728;2023-04-03T15:23:00;5.07;;;1.00;;
7487;SDS011;3785;52.260;4.728;2023-04-03T15:26:21;0.90;;;0.50;;
7487;SDS011;3785;52.260;4.728;2023-04-03T15:29:42;1.70;;;0.60;;
7487;SDS011;3785;52.260;4.728;2023-04-03T15:33:03;1.73;;;0.70;;
7487;SDS011;3785;52.260;4.728;2023-04-03T15:36:24;1.02;;;0.40;;
7487;SDS011;3785;52.260;4.728;2023-04-03T15:39:45;1.17;;;0.55;;
7487;SDS011;3785;52.260;4.728;2023-04-03T15:43:06;1.77;;;0.70;;
7487;SDS011;3785;52.260;4.728;2023-04-03T15:46:26;0.95;;;0.45;;
7487;SDS011;3785;52.260;4.728;2023-04-03T15:49:47;1.63;;;0.70;;
7487;SDS011;3785;52.260;4.728;2023-04-03T15:53:08;1.00;;;0.50;;
7487;SDS011;3785;52.260;4.728;2023-04-03T15:56:28;2.25;;;0.47;;
7487;SDS011;3785;52.260;4.728;2023-04-03T15:59:49;2.08;;;0.50;;
7487;SDS011;3785;52.260;4.728;2023-04-03T16:03:11;1.10;;;0.60;;
7487;SDS011;3785;52.260;4.728;2023-04-03T16:06:32;2.92;;;0.70;;
7487;SDS011;3785;52.260;4.728;2023-04-03T16:09:53;0.73;;;0.45;;
7487;SDS011;3785;52.260;4.728;2023-04-03T16:13:15;2.45;;;0.60;;
7487;SDS011;3785;52.260;4.728;2023-04-03T16:16:36;1.08;;;0.60;;
7487;SDS011;3785;52.260;4.728;2023-04-03T16:19:56;3.05;;;0.77;;
7487;SDS011;3785;52.260;4.728;2023-04-03T16:23:17;1.13;;;0.63;;
7487;SDS011;3785;52.260;4.728;2023-04-03T16:26:38;1.88;;;0.50;;
7487;SDS011;3785;52.260;4.728;2023-04-03T16:29:58;3.55;;;0.80;;
7487;SDS011;3785;52.260;4.728;2023-04-03T16:33:19;3.53;;;0.75;;
7487;SDS011;3785;52.260;4.728;2023-04-03T16:36:41;2.35;;;0.70;;
7487;SDS011;3785;52.260;4.728;2023-04-03T16:40:02;1.30;;;0.57;;
7487;SDS011;3785;52.260;4.728;2023-04-03T16:43:25;1.77;;;0.47;;
7487;SDS011;3785;52.260;4.728;2023-04-03T16:46:46;1.40;;;0.50;;
7487;SDS011;3785;52.260;4.728;2023-04-03T16:50:07;1.58;;;0.60;;
7487;SDS011;3785;52.260;4.728;2023-04-03T16:53:28;1.70;;;0.75;;
7487;SDS011;3785;52.260;4.728;2023-04-03T16:56:48;1.90;;;0.57;;
7487;SDS011;3785;52.260;4.728;2023-04-03T17:00:09;1.88;;;0.70;;
7487;SDS011;3785;52.260;4.728;2023-04-03T17:03:30;3.47;;;0.80;;
7487;SDS011;3785;52.260;4.728;2023-04-03T17:06:50;1.95;;;0.52;;
7487;SDS011;3785;52.260;4.728;2023-04-03T17:10:11;1.52;;;0.65;;
7487;SDS011;3785;52.260;4.728;2023-04-03T17:13:32;3.25;;;0.70;;
7487;SDS011;3785;52.260;4.728;2023-04-03T17:16:53;1.25;;;0.65;;
7487;SDS011;3785;52.260;4.728;2023-04-03T17:20:14;0.98;;;0.60;;
7487;SDS011;3785;52.260;4.728;2023-04-03T17:23:35;1.85;;;0.70;;
7487;SDS011;3785;52.260;4.728;2023-04-03T17:26:56;2.30;;;0.73;;
7487;SDS011;3785;52.260;4.728;2023-04-03T17:30:17;1.13;;;0.77;;
7487;SDS011;3785;52.260;4.728;2023-04-03T17:33:38;1.90;;;0.63;;
7487;SDS011;3785;52.260;4.728;2023-04-03T17:36:58;1.77;;;0.52;;
7487;SDS011;3785;52.260;4.728;2023-04-03T17:40:19;0.93;;;0.47;;
7487;SDS011;3785;52.260;4.728;2023-04-03T17:43:41;2.45;;;0.63;;
7487;SDS011;3785;52.260;4.728;2023-04-03T17:47:02;1.90;;;0.75;;
7487;SDS011;3785;52.260;4.728;2023-04-03T17:50:23;2.05;;;1.00;;
7487;SDS011;3785;52.260;4.728;2023-04-03T17:53:43;1.40;;;0.60;;
7487;SDS011;3785;52.260;4.728;2023-04-03T17:57:04;1.98;;;0.60;;
7487;SDS011;3785;52.260;4.728;2023-04-03T18:00:25;1.30;;;0.80;;
7487;SDS011;3785;52.260;4.728;2023-04-03T18:03:45;2.03;;;0.75;;
7487;SDS011;3785;52.260;4.728;2023-04-03T18:07:07;2.80;;;0.90;;
7487;SDS011;3785;52.260;4.728;2023-04-03T18:10:28;1.25;;;0.68;;
7487;SDS011;3785;52.260;4.728;2023-04-03T18:13:49;1.15;;;0.70;;
7487;SDS011;3785;52.260;4.728;2023-04-03T18:17:10;2.47;;;0.85;;
7487;SDS011;3785;52.260;4.728;2023-04-03T18:20:31;2.75;;;0.90;;
7487;SDS011;3785;52.260;4.728;2023-04-03T18:23:52;1.92;;;0.80;;
7487;SDS011;3785;52.260;4.728;2023-04-03T18:27:14;2.80;;;1.08;;
7487;SDS011;3785;52.260;4.728;2023-04-03T18:30:37;1.85;;;0.80;;
7487;SDS011;3785;52.260;4.728;2023-04-03T18:33:58;3.63;;;0.90;;
7487;SDS011;3785;52.260;4.728;2023-04-03T18:37:19;1.92;;;0.63;;
7487;SDS011;3785;52.260;4.728;2023-04-03T18:40:40;1.52;;;0.77;;
7487;SDS011;3785;52.260;4.728;2023-04-03T18:44:02;1.25;;;0.52;;
7487;SDS011;3785;52.260;4.728;2023-04-03T18:47:25;4.03;;;0.90;;
7487;SDS011;3785;52.260;4.728;2023-04-03T18:50:49;0.98;;;0.60;;
7487;SDS011;3785;52.260;4.728;2023-04-03T18:54:10;2.67;;;1.00;;
7487;SDS011;3785;52.260;4.728;2023-04-03T18:57:30;2.28;;;1.10;;
7487;SDS011;3785;52.260;4.728;2023-04-03T19:00:51;1.75;;;0.80;;
7487;SDS011;3785;52.260;4.728;2023-04-03T19:04:12;1.13;;;0.70;;
7487;SDS011;3785;52.260;4.728;2023-04-03T19:07:33;2.08;;;0.80;;
7487;SDS011;3785;52.260;4.728;2023-04-03T19:10:53;1.65;;;0.80;;
7487;SDS011;3785;52.260;4.728;2023-04-03T19:14:14;2.22;;;0.82;;
7487;SDS011;3785;52.260;4.728;2023-04-03T19:17:34;1.98;;;1.10;;
7487;SDS011;3785;52.260;4.728;2023-04-03T19:20:55;1.48;;;0.70;;
7487;SDS011;3785;52.260;4.728;2023-04-03T19:24:16;2.85;;;0.90;;
7487;SDS011;3785;52.260;4.728;2023-04-03T19:27:40;2.60;;;0.75;;
7487;SDS011;3785;52.260;4.728;2023-04-03T19:31:01;1.25;;;0.60;;
7487;SDS011;3785;52.260;4.728;2023-04-03T19:34:22;1.52;;;0.70;;
7487;SDS011;3785;52.260;4.728;2023-04-03T19:37:42;1.63;;;0.82;;
7487;SDS011;3785;52.260;4.728;2023-04-03T19:41:07;1.35;;;0.80;;
7487;SDS011;3785;52.260;4.728;2023-04-03T19:44:31;1.50;;;0.90;;
7487;SDS011;3785;52.260;4.728;2023-04-03T19:47:53;4.03;;;1.27;;
7487;SDS011;3785;52.260;4.728;2023-04-03T19:51:13;1.23;;;0.60;;
7487;SDS011;3785;52.260;4.728;2023-04-03T19:54:34;2.65;;;0.77;;
7487;SDS011;3785;52.260;4.728;2023-04-03T19:57:54;1.30;;;0.70;;
7487;SDS011;3785;52.260;4.728;2023-04-03T20:01:19;2.38;;;1.25;;
7487;SDS011;3785;52.260;4.728;2023-04-03T20:04:43;2.13;;;0.77;;
7487;SDS011;3785;52.260;4.728;2023-04-03T20:08:04;2.63;;;0.75;;
7487;SDS011;3785;52.260;4.728;2023-04-03T20:11:24;1.58;;;0.80;;
7487;SDS011;3785;52.260;4.728;2023-04-03T20:14:46;1.88;;;0.70;;
7487;SDS011;3785;52.260;4.728;2023-04-03T20:18:08;1.30;;;0.73;;
7487;SDS011;3785;52.260;4.728;2023-04-03T20:21:30;3.05;;;1.10;;
7487;SDS011;3785;52.260;4.728;2023-04-03T20:24:51;2.75;;;0.88;;
7487;SDS011;3785;52.260;4.728;2023-04-03T20:28:12;1.65;;;0.90;;
7487;SDS011;3785;52.260;4.728;2023-04-03T20:31:34;1.75;;;1.05;;
7487;SDS011;3785;52.260;4.728;2023-04-03T20:34:56;1.92;;;1.08;;
7487;SDS011;3785;52.260;4.728;2023-04-03T20:38:17;3.15;;;1.65;;
7487;SDS011;3785;52.260;4.728;2023-04-03T20:41:37;1.60;;;1.20;;
7487;SDS011;3785;52.260;4.728;2023-04-03T20:44:58;4.07;;;1.23;;
7487;SDS011;3785;52.260;4.728;2023-04-03T20:48:19;2.20;;;1.08;;
7487;SDS011;3785;52.260;4.728;2023-04-03T20:51:40;4.80;;;1.75;;
7487;SDS011;3785;52.260;4.728;2023-04-03T20:55:01;2.95;;;1.33;;
7487;SDS011;3785;52.260;4.728;2023-04-03T20:58:22;2.22;;;1.30;;
7487;SDS011;3785;52.260;4.728;2023-04-03T21:01:44;4.15;;;1.42;;
7487;SDS011;3785;52.260;4.728;2023-04-03T21:05:06;5.70;;;1.70;;
7487;SDS011;3785;52.260;4.728;2023-04-03T21:19:46;1.88;;;1.08;;
7487;SDS011;3785;52.260;4.728;2023-04-03T21:23:08;1.52;;;0.85;;
7487;SDS011;3785;52.260;4.728;2023-04-03T21:26:28;2.25;;;0.90;;
7487;SDS011;3785;52.260;4.728;2023-04-03T21:29:49;1.52;;;1.15;;
7487;SDS011;3785;52.260;4.728;2023-04-03T21:33:11;2.30;;;0.95;;
7487;SDS011;3785;52.260;4.728;2023-04-03T21:36:38;2.08;;;1.20;;
7487;SDS011;3785;52.260;4.728;2023-04-03T21:39:59;2.50;;;1.13;;
7487;SDS011;3785;52.260;4.728;2023-04-03T21:43:20;2.10;;;1.17;;
7487;SDS011;3785;52.260;4.728;2023-04-03T21:46:40;1.75;;;1.00;;
7487;SDS011;3785;52.260;4.728;2023-04-03T21:50:01;1.33;;;0.90;;
7487;SDS011;3785;52.260;4.728;2023-04-03T21:53:22;1.80;;;1.00;;
7487;SDS011;3785;52.260;4.728;2023-04-03T21:56:43;3.50;;;1.20;;
7487;SDS011;3785;52.260;4.728;2023-04-03T22:00:03;2.40;;;1.10;;
7487;SDS011;3785;52.260;4.728;2023-04-03T22:03:25;3.00;;;1.30;;
7487;SDS011;3785;52.260;4.728;2023-04-03T22:06:46;4.10;;;1.50;;
7487;SDS011;3785;52.260;4.728;2023-04-03T22:10:06;3.20;;;1.20;;
7487;SDS011;3785;52.260;4.728;2023-04-03T22:13:27;3.25;;;1.17;;
7487;SDS011;3785;52.260;4.728;2023-04-03T22:16:48;2.08;;;1.13;;
7487;SDS011;3785;52.260;4.728;2023-04-03T22:20:09;2.53;;;1.48;;
7487;SDS011;3785;52.260;4.728;2023-04-03T22:23:30;2.47;;;1.00;;
7487;SDS011;3785;52.260;4.728;2023-04-03T22:26:50;2.63;;;1.00;;
7487;SDS011;3785;52.260;4.728;2023-04-03T22:30:11;3.17;;;1.25;;
7487;SDS011;3785;52.260;4.728;2023-04-03T22:33:33;2.92;;;1.10;;
7487;SDS011;3785;52.260;4.728;2023-04-03T22:36:56;2.50;;;1.00;;
7487;SDS011;3785;52.260;4.728;2023-04-03T22:40:17;2.08;;;0.95;;
7487;SDS011;3785;52.260;4.728;2023-04-03T22:43:38;1.92;;;0.90;;